sensor_id;sensor_type;location;lat;lon;timestamp;P1;durP1;ratioP1;P2;durP2;ratioP2
53666;SDS011;39568;51.026;5.468;2023-07-20T00:00:06;7.32;;;4.03;;
53666;SDS011;39568;51.026;5.468;2023-07-20T00:02:33;4.47;;;3.95;;
53666;SDS011;39568;51.026;5.468;2023-07-20T00:05:02;10.23;;;4.75;;
53666;SDS011;39568;51.026;5.468;2023-07-20T00:07:34;11.10;;;3.95;;
53666;SDS011;39568;51.026;5.468;2023-07-20T00:10:03;6.85;;;4.40;;
53666;SDS011;39568;51.026;5.468;2023-07-20T00:12:31;6.47;;;5.13;;
53666;SDS011;39568;51.026;5.468;2023-07-20T00:14:57;8.50;;;4.32;;
53666;SDS011;39568;51.026;5.468;2023-07-20T00:17:24;3.75;;;3.35;;
53666;SDS011;39568;51.026;5.468;2023-07-20T00:19:51;4.70;;;4.25;;
53666;SDS011;39568;51.026;5.468;2023-07-20T00:22:17;5.35;;;4.13;;
53666;SDS011;39568;51.026;5.468;2023-07-20T00:24:45;10.48;;;3.65;;
53666;SDS011;39568;51.026;5.468;2023-07-20T00:27:12;4.60;;;3.63;;
53666;SDS011;39568;51.026;5.468;2023-07-20T00:29:38;7.00;;;4.20;;
53666;SDS011;39568;51.026;5.468;2023-07-20T00:32:07;7.30;;;3.78;;
53666;SDS011;39568;51.026;5.468;2023-07-20T00:34:34;12.05;;;4.72;;
53666;SDS011;39568;51.026;5.468;2023-07-20T00:37:00;4.75;;;3.90;;
53666;SDS011;39568;51.026;5.468;2023-07-20T00:39:27;4.78;;;4.30;;
53666;SDS011;39568;51.026;5.468;2023-07-20T00:41:58;6.97;;;4.47;;
53666;SDS011;39568;51.026;5.468;2023-07-20T00:44:25;5.20;;;4.05;;
53666;SDS011;39568;51.026;5.468;2023-07-20T00:46:52;5.63;;;4.15;;
53666;SDS011;39568;51.026;5.468;2023-07-20T00:49:18;10.25;;;4.88;;
53666;SDS011;39568;51.026;5.468;2023-07-20T00:51:47;5.45;;;3.25;;
53666;SDS011;39568;51.026;5.468;2023-07-20T00:54:14;6.97;;;4.90;;
53666;SDS011;39568;51.026;5.468;2023-07-20T00:56:41;7.43;;;4.40;;
53666;SDS011;39568;51.026;5.468;2023-07-20T00:59:13;8.77;;;3.97;;
53666;SDS011;39568;51.026;5.468;2023-07-20T01:01:40;10.93;;;4.13;;
53666;SDS011;39568;51.026;5.468;2023-07-20T01:04:06;7.28;;;4.25;;
53666;SDS011;39568;51.026;5.468;2023-07-20T01:06:36;8.35;;;3.80;;
53666;SDS011;39568;51.026;5.468;2023-07-20T01:09:13;7.85;;;3.88;;
53666;SDS011;39568;51.026;5.468;2023-07-20T01:11:43;5.32;;;3.50;;
53666;SDS011;39568;51.026;5.468;2023-07-20T01:14:17;30.55;;;6.10;;
53666;SDS011;39568;51.026;5.468;2023-07-20T01:16:45;9.60;;;3.67;;
53666;SDS011;39568;51.026;5.468;2023-07-20T01:19:14;6.85;;;3.50;;
53666;SDS011;39568;51.026;5.468;2023-07-20T01:21:45;4.45;;;3.83;;
53666;SDS011;39568;51.026;5.468;2023-07-20T01:24:27;4.57;;;2.70;;
53666;SDS011;39568;51.026;5.468;2023-07-20T01:33:13;9.15;;;3.80;;
53666;SDS011;39568;51.026;5.468;2023-07-20T01:35:45;3.65;;;3.05;;
53666;SDS011;39568;51.026;5.468;2023-07-20T01:38:14;4.55;;;3.38;;
53666;SDS011;39568;51.026;5.468;2023-07-20T01:40:41;3.95;;;3.00;;
53666;SDS011;39568;51.026;5.468;2023-07-20T01:43:15;5.40;;;3.30;;
53666;SDS011;39568;51.026;5.468;2023-07-20T01:45:42;5.80;;;2.88;;
53666;SDS011;39568;51.026;5.468;2023-07-20T01:48:09;4.30;;;2.78;;
53666;SDS011;39568;51.026;5.468;2023-07-20T01:50:38;9.85;;;4.28;;
53666;SDS011;39568;51.026;5.468;2023-07-20T01:53:04;3.60;;;2.72;;
53666;SDS011;39568;51.026;5.468;2023-07-20T01:55:31;8.70;;;3.55;;
53666;SDS011;39568;51.026;5.468;2023-07-20T01:57:58;6.32;;;3.67;;
53666;SDS011;39568;51.026;5.468;2023-07-20T02:00:27;8.07;;;3.65;;
53666;SDS011;39568;51.026;5.468;2023-07-20T02:02:53;4.13;;;3.70;;
53666;SDS011;39568;51.026;5.468;2023-07-20T02:05:23;6.18;;;3.45;;
53666;SDS011;39568;51.026;5.468;2023-07-20T02:07:55;13.75;;;4.13;;
53666;SDS011;39568;51.026;5.468;2023-07-20T02:10:22;12.98;;;4.00;;
53666;SDS011;39568;51.026;5.468;2023-07-20T02:12:49;3.72;;;3.05;;
53666;SDS011;39568;51.026;5.468;2023-07-20T02:15:16;8.25;;;4.03;;
53666;SDS011;39568;51.026;5.468;2023-07-20T02:17:47;5.63;;;4.00;;
53666;SDS011;39568;51.026;5.468;2023-07-20T02:20:14;6.55;;;3.97;;
53666;SDS011;39568;51.026;5.468;2023-07-20T02:22:41;5.45;;;3.97;;
53666;SDS011;39568;51.026;5.468;2023-07-20T02:25:09;6.35;;;3.70;;
53666;SDS011;39568;51.026;5.468;2023-07-20T02:27:36;7.13;;;3.85;;
53666;SDS011;39568;51.026;5.468;2023-07-20T02:30:04;12.43;;;3.95;;
53666;SDS011;39568;51.026;5.468;2023-07-20T02:32:31;12.15;;;4.22;;
53666;SDS011;39568;51.026;5.468;2023-07-20T02:34:59;8.20;;;3.75;;
53666;SDS011;39568;51.026;5.468;2023-07-20T02:37:25;6.85;;;3.35;;
53666;SDS011;39568;51.026;5.468;2023-07-20T02:39:53;12.98;;;4.40;;
53666;SDS011;39568;51.026;5.468;2023-07-20T02:42:21;9.65;;;4.40;;
53666;SDS011;39568;51.026;5.468;2023-07-20T02:44:50;9.75;;;4.18;;
53666;SDS011;39568;51.026;5.468;2023-07-20T02:47:17;7.45;;;3.90;;
53666;SDS011;39568;51.026;5.468;2023-07-20T02:49:44;13.15;;;4.85;;
53666;SDS011;39568;51.026;5.468;2023-07-20T02:52:10;13.45;;;5.13;;
53666;SDS011;39568;51.026;5.468;2023-07-20T02:54:37;21.23;;;4.53;;
53666;SDS011;39568;51.026;5.468;2023-07-20T02:57:04;9.90;;;4.25;;
53666;SDS011;39568;51.026;5.468;2023-07-20T02:59:33;13.77;;;5.07;;
53666;SDS011;39568;51.026;5.468;2023-07-20T03:01:59;5.28;;;4.78;;
53666;SDS011;39568;51.026;5.468;2023-07-20T03:04:26;7.85;;;4.53;;
53666;SDS011;39568;51.026;5.468;2023-07-20T03:06:53;9.23;;;5.10;;
53666;SDS011;39568;51.026;5.468;2023-07-20T03:09:19;8.75;;;4.57;;
53666;SDS011;39568;51.026;5.468;2023-07-20T03:11:47;7.13;;;4.35;;
53666;SDS011;39568;51.026;5.468;2023-07-20T03:14:13;19.83;;;5.30;;
53666;SDS011;39568;51.026;5.468;2023-07-20T03:16:41;9.90;;;5.25;;
53666;SDS011;39568;51.026;5.468;2023-07-20T03:19:08;11.02;;;5.30;;
53666;SDS011;39568;51.026;5.468;2023-07-20T03:21:35;6.60;;;5.10;;
53666;SDS011;39568;51.026;5.468;2023-07-20T03:24:05;14.68;;;4.82;;
53666;SDS011;39568;51.026;5.468;2023-07-20T03:26:32;13.98;;;4.55;;
53666;SDS011;39568;51.026;5.468;2023-07-20T03:28:59;12.43;;;5.20;;
53666;SDS011;39568;51.026;5.468;2023-07-20T03:31:26;11.02;;;5.65;;
53666;SDS011;39568;51.026;5.468;2023-07-20T03:33:54;14.98;;;5.47;;
53666;SDS011;39568;51.026;5.468;2023-07-20T03:36:20;22.52;;;5.32;;
53666;SDS011;39568;51.026;5.468;2023-07-20T03:38:49;7.10;;;5.20;;
53666;SDS011;39568;51.026;5.468;2023-07-20T03:41:18;20.52;;;5.38;;
53666;SDS011;39568;51.026;5.468;2023-07-20T03:43:45;15.80;;;5.55;;
53666;SDS011;39568;51.026;5.468;2023-07-20T03:46:11;18.58;;;6.72;;
53666;SDS011;39568;51.026;5.468;2023-07-20T03:48:38;13.80;;;5.65;;
53666;SDS011;39568;51.026;5.468;2023-07-20T03:51:10;13.73;;;5.45;;
53666;SDS011;39568;51.026;5.468;2023-07-20T03:53:42;9.68;;;6.35;;
53666;SDS011;39568;51.026;5.468;2023-07-20T03:56:15;12.68;;;5.32;;
53666;SDS011;39568;51.026;5.468;2023-07-20T03:58:42;10.90;;;5.03;;
53666;SDS011;39568;51.026;5.468;2023-07-20T04:01:08;13.38;;;6.32;;
53666;SDS011;39568;51.026;5.468;2023-07-20T04:03:39;15.25;;;5.28;;
53666;SDS011;39568;51.026;5.468;2023-07-20T04:06:10;9.10;;;5.03;;
53666;SDS011;39568;51.026;5.468;2023-07-20T04:08:37;12.25;;;6.03;;
53666;SDS011;39568;51.026;5.468;2023-07-20T04:11:04;15.73;;;7.15;;
53666;SDS011;39568;51.026;5.468;2023-07-20T04:13:33;6.25;;;5.13;;
53666;SDS011;39568;51.026;5.468;2023-07-20T04:16:06;25.10;;;9.70;;
53666;SDS011;39568;51.026;5.468;2023-07-20T04:18:34;13.07;;;8.40;;
53666;SDS011;39568;51.026;5.468;2023-07-20T04:21:00;25.38;;;8.40;;
53666;SDS011;39568;51.026;5.468;2023-07-20T04:23:29;15.30;;;8.25;;
53666;SDS011;39568;51.026;5.468;2023-07-20T04:25:55;13.60;;;7.43;;
53666;SDS011;39568;51.026;5.468;2023-07-20T04:28:22;18.17;;;9.48;;
53666;SDS011;39568;51.026;5.468;2023-07-20T04:30:49;16.27;;;10.57;;
53666;SDS011;39568;51.026;5.468;2023-07-20T04:33:16;19.58;;;10.43;;
53666;SDS011;39568;51.026;5.468;2023-07-20T04:35:47;22.38;;;11.95;;
53666;SDS011;39568;51.026;5.468;2023-07-20T04:38:17;23.77;;;10.60;;
53666;SDS011;39568;51.026;5.468;2023-07-20T04:40:46;15.55;;;9.63;;
53666;SDS011;39568;51.026;5.468;2023-07-20T04:43:13;22.63;;;12.18;;
53666;SDS011;39568;51.026;5.468;2023-07-20T04:45:40;24.48;;;11.98;;
53666;SDS011;39568;51.026;5.468;2023-07-20T04:48:08;19.95;;;11.80;;
53666;SDS011;39568;51.026;5.468;2023-07-20T04:50:36;22.83;;;12.75;;
53666;SDS011;39568;51.026;5.468;2023-07-20T04:53:03;21.13;;;13.50;;
53666;SDS011;39568;51.026;5.468;2023-07-20T04:55:32;20.42;;;13.27;;
53666;SDS011;39568;51.026;5.468;2023-07-20T04:58:01;21.02;;;11.48;;
53666;SDS011;39568;51.026;5.468;2023-07-20T05:00:28;29.60;;;12.38;;
53666;SDS011;39568;51.026;5.468;2023-07-20T05:02:55;19.38;;;11.70;;
53666;SDS011;39568;51.026;5.468;2023-07-20T05:05:23;18.98;;;11.40;;
53666;SDS011;39568;51.026;5.468;2023-07-20T05:07:50;20.85;;;12.00;;
53666;SDS011;39568;51.026;5.468;2023-07-20T05:10:19;18.33;;;11.32;;
53666;SDS011;39568;51.026;5.468;2023-07-20T05:12:50;22.23;;;12.70;;
53666;SDS011;39568;51.026;5.468;2023-07-20T05:15:18;19.73;;;14.77;;
53666;SDS011;39568;51.026;5.468;2023-07-20T05:17:45;29.92;;;17.33;;
53666;SDS011;39568;51.026;5.468;2023-07-20T05:20:13;28.95;;;17.25;;
53666;SDS011;39568;51.026;5.468;2023-07-20T05:22:44;31.30;;;18.23;;
53666;SDS011;39568;51.026;5.468;2023-07-20T05:25:10;27.98;;;16.75;;
53666;SDS011;39568;51.026;5.468;2023-07-20T05:27:37;23.35;;;15.50;;
53666;SDS011;39568;51.026;5.468;2023-07-20T05:30:05;33.95;;;15.82;;
53666;SDS011;39568;51.026;5.468;2023-07-20T05:32:37;21.15;;;15.75;;
53666;SDS011;39568;51.026;5.468;2023-07-20T05:35:05;23.77;;;15.15;;
53666;SDS011;39568;51.026;5.468;2023-07-20T05:37:33;23.33;;;15.05;;
53666;SDS011;39568;51.026;5.468;2023-07-20T05:40:02;28.45;;;16.38;;
53666;SDS011;39568;51.026;5.468;2023-07-20T05:42:29;23.23;;;16.17;;
53666;SDS011;39568;51.026;5.468;2023-07-20T05:44:56;25.92;;;17.00;;
53666;SDS011;39568;51.026;5.468;2023-07-20T05:47:23;29.05;;;19.55;;
53666;SDS011;39568;51.026;5.468;2023-07-20T05:49:51;31.77;;;18.85;;
53666;SDS011;39568;51.026;5.468;2023-07-20T05:52:19;31.60;;;17.92;;
53666;SDS011;39568;51.026;5.468;2023-07-20T05:54:46;29.92;;;19.85;;
53666;SDS011;39568;51.026;5.468;2023-07-20T05:57:12;29.48;;;18.95;;
53666;SDS011;39568;51.026;5.468;2023-07-20T05:59:41;30.00;;;17.63;;
53666;SDS011;39568;51.026;5.468;2023-07-20T06:02:11;29.52;;;17.38;;
53666;SDS011;39568;51.026;5.468;2023-07-20T06:04:38;19.98;;;17.08;;
53666;SDS011;39568;51.026;5.468;2023-07-20T06:07:07;20.30;;;15.07;;
53666;SDS011;39568;51.026;5.468;2023-07-20T06:09:34;26.88;;;15.27;;
53666;SDS011;39568;51.026;5.468;2023-07-20T06:12:00;16.90;;;14.02;;
53666;SDS011;39568;51.026;5.468;2023-07-20T06:14:27;24.38;;;13.57;;
53666;SDS011;39568;51.026;5.468;2023-07-20T06:16:54;19.02;;;12.60;;
53666;SDS011;39568;51.026;5.468;2023-07-20T06:19:21;18.30;;;12.90;;
53666;SDS011;39568;51.026;5.468;2023-07-20T06:21:48;18.38;;;12.75;;
53666;SDS011;39568;51.026;5.468;2023-07-20T06:24:17;18.05;;;12.02;;
53666;SDS011;39568;51.026;5.468;2023-07-20T06:26:43;22.92;;;13.48;;
53666;SDS011;39568;51.026;5.468;2023-07-20T06:29:10;18.20;;;12.43;;
53666;SDS011;39568;51.026;5.468;2023-07-20T06:31:37;15.60;;;12.68;;
53666;SDS011;39568;51.026;5.468;2023-07-20T06:34:04;21.20;;;13.25;;
53666;SDS011;39568;51.026;5.468;2023-07-20T06:36:30;14.43;;;11.38;;
53666;SDS011;39568;51.026;5.468;2023-07-20T06:38:57;11.75;;;10.38;;
53666;SDS011;39568;51.026;5.468;2023-07-20T06:41:25;16.33;;;10.35;;
53666;SDS011;39568;51.026;5.468;2023-07-20T06:43:52;14.98;;;11.25;;
53666;SDS011;39568;51.026;5.468;2023-07-20T06:46:23;17.25;;;9.38;;
53666;SDS011;39568;51.026;5.468;2023-07-20T06:48:50;12.45;;;8.73;;
53666;SDS011;39568;51.026;5.468;2023-07-20T06:51:16;9.10;;;7.63;;
53666;SDS011;39568;51.026;5.468;2023-07-20T06:53:43;7.80;;;7.00;;
53666;SDS011;39568;51.026;5.468;2023-07-20T06:56:10;11.43;;;9.55;;
53666;SDS011;39568;51.026;5.468;2023-07-20T06:58:39;8.63;;;7.80;;
53666;SDS011;39568;51.026;5.468;2023-07-20T07:01:06;10.60;;;8.75;;
53666;SDS011;39568;51.026;5.468;2023-07-20T07:03:36;7.00;;;5.47;;
53666;SDS011;39568;51.026;5.468;2023-07-20T07:06:03;7.82;;;7.03;;
53666;SDS011;39568;51.026;5.468;2023-07-20T07:08:33;7.88;;;6.88;;
53666;SDS011;39568;51.026;5.468;2023-07-20T07:11:00;10.80;;;7.70;;
53666;SDS011;39568;51.026;5.468;2023-07-20T07:13:26;10.57;;;7.68;;
53666;SDS011;39568;51.026;5.468;2023-07-20T07:15:58;8.82;;;8.00;;
53666;SDS011;39568;51.026;5.468;2023-07-20T07:18:29;8.20;;;7.32;;
53666;SDS011;39568;51.026;5.468;2023-07-20T07:20:56;13.00;;;6.38;;
53666;SDS011;39568;51.026;5.468;2023-07-20T07:23:23;8.20;;;6.07;;
53666;SDS011;39568;51.026;5.468;2023-07-20T07:25:49;8.90;;;6.50;;
53666;SDS011;39568;51.026;5.468;2023-07-20T07:28:17;10.38;;;6.53;;
53666;SDS011;39568;51.026;5.468;2023-07-20T07:30:44;8.98;;;6.13;;
53666;SDS011;39568;51.026;5.468;2023-07-20T07:33:14;8.55;;;6.22;;
53666;SDS011;39568;51.026;5.468;2023-07-20T07:35:40;14.15;;;9.27;;
53666;SDS011;39568;51.026;5.468;2023-07-20T07:38:07;12.23;;;8.43;;
53666;SDS011;39568;51.026;5.468;2023-07-20T07:40:34;12.38;;;8.98;;
53666;SDS011;39568;51.026;5.468;2023-07-20T07:43:01;11.13;;;9.02;;
53666;SDS011;39568;51.026;5.468;2023-07-20T07:45:28;13.63;;;7.95;;
53666;SDS011;39568;51.026;5.468;2023-07-20T07:47:56;8.25;;;7.35;;
53666;SDS011;39568;51.026;5.468;2023-07-20T07:50:24;7.80;;;6.53;;
53666;SDS011;39568;51.026;5.468;2023-07-20T07:52:52;9.57;;;6.78;;
53666;SDS011;39568;51.026;5.468;2023-07-20T07:55:24;11.38;;;6.88;;
53666;SDS011;39568;51.026;5.468;2023-07-20T07:57:55;11.13;;;8.48;;
53666;SDS011;39568;51.026;5.468;2023-07-20T08:00:22;13.48;;;9.38;;
53666;SDS011;39568;51.026;5.468;2023-07-20T08:02:53;8.25;;;7.40;;
53666;SDS011;39568;51.026;5.468;2023-07-20T08:05:24;7.45;;;6.70;;
53666;SDS011;39568;51.026;5.468;2023-07-20T08:07:51;7.50;;;6.80;;
53666;SDS011;39568;51.026;5.468;2023-07-20T08:10:18;14.38;;;7.53;;
53666;SDS011;39568;51.026;5.468;2023-07-20T08:12:45;6.78;;;6.10;;
53666;SDS011;39568;51.026;5.468;2023-07-20T08:15:11;5.00;;;4.60;;
53666;SDS011;39568;51.026;5.468;2023-07-20T08:17:39;5.93;;;4.80;;
53666;SDS011;39568;51.026;5.468;2023-07-20T08:20:07;8.90;;;4.38;;
53666;SDS011;39568;51.026;5.468;2023-07-20T08:22:38;3.80;;;3.50;;
53666;SDS011;39568;51.026;5.468;2023-07-20T08:25:10;5.10;;;3.90;;
53666;SDS011;39568;51.026;5.468;2023-07-20T08:27:37;4.63;;;4.32;;
53666;SDS011;39568;51.026;5.468;2023-07-20T08:30:04;11.35;;;5.32;;
53666;SDS011;39568;51.026;5.468;2023-07-20T08:32:33;13.68;;;5.90;;
53666;SDS011;39568;51.026;5.468;2023-07-20T08:34:59;4.88;;;4.47;;
53666;SDS011;39568;51.026;5.468;2023-07-20T08:37:26;11.07;;;5.70;;
53666;SDS011;39568;51.026;5.468;2023-07-20T08:39:55;10.90;;;4.28;;
53666;SDS011;39568;51.026;5.468;2023-07-20T08:42:22;3.85;;;3.03;;
53666;SDS011;39568;51.026;5.468;2023-07-20T08:44:49;3.10;;;2.90;;
53666;SDS011;39568;51.026;5.468;2023-07-20T08:47:21;3.30;;;3.10;;
53666;SDS011;39568;51.026;5.468;2023-07-20T08:49:50;2.92;;;2.72;;
53666;SDS011;39568;51.026;5.468;2023-07-20T08:52:17;15.85;;;3.70;;
53666;SDS011;39568;51.026;5.468;2023-07-20T08:54:43;8.82;;;4.43;;
53666;SDS011;39568;51.026;5.468;2023-07-20T08:57:15;12.13;;;3.90;;
53666;SDS011;39568;51.026;5.468;2023-07-20T08:59:43;3.35;;;2.63;;
53666;SDS011;39568;51.026;5.468;2023-07-20T09:02:11;2.05;;;1.95;;
53666;SDS011;39568;51.026;5.468;2023-07-20T09:04:44;4.03;;;3.75;;
53666;SDS011;39568;51.026;5.468;2023-07-20T09:07:10;4.47;;;3.33;;
53666;SDS011;39568;51.026;5.468;2023-07-20T09:09:39;4.22;;;3.42;;
53666;SDS011;39568;51.026;5.468;2023-07-20T09:12:12;8.80;;;2.90;;
53666;SDS011;39568;51.026;5.468;2023-07-20T09:14:42;2.40;;;2.30;;
53666;SDS011;39568;51.026;5.468;2023-07-20T09:17:12;2.03;;;1.92;;
53666;SDS011;39568;51.026;5.468;2023-07-20T09:19:45;2.30;;;2.20;;
53666;SDS011;39568;51.026;5.468;2023-07-20T09:22:12;1.70;;;1.60;;
53666;SDS011;39568;51.026;5.468;2023-07-20T09:24:40;2.55;;;1.83;;
53666;SDS011;39568;51.026;5.468;2023-07-20T09:27:07;2.58;;;2.15;;
53666;SDS011;39568;51.026;5.468;2023-07-20T09:29:41;3.80;;;1.52;;
53666;SDS011;39568;51.026;5.468;2023-07-20T09:32:17;3.08;;;2.60;;
53666;SDS011;39568;51.026;5.468;2023-07-20T09:34:44;3.88;;;2.83;;
53666;SDS011;39568;51.026;5.468;2023-07-20T09:37:11;2.83;;;2.35;;
53666;SDS011;39568;51.026;5.468;2023-07-20T09:39:41;4.57;;;2.42;;
53666;SDS011;39568;51.026;5.468;2023-07-20T09:42:10;1.92;;;1.83;;
53666;SDS011;39568;51.026;5.468;2023-07-20T09:44:45;3.40;;;1.95;;
53666;SDS011;39568;51.026;5.468;2023-07-20T09:47:23;1.50;;;1.40;;
53666;SDS011;39568;51.026;5.468;2023-07-20T09:50:00;1.88;;;1.10;;
53666;SDS011;39568;51.026;5.468;2023-07-20T09:52:28;5.55;;;1.55;;
53666;SDS011;39568;51.026;5.468;2023-07-20T09:54:56;1.58;;;1.48;;
53666;SDS011;39568;51.026;5.468;2023-07-20T09:57:24;1.27;;;1.20;;
53666;SDS011;39568;51.026;5.468;2023-07-20T09:59:57;1.30;;;1.10;;
53666;SDS011;39568;51.026;5.468;2023-07-20T10:02:25;4.95;;;1.63;;
53666;SDS011;39568;51.026;5.468;2023-07-20T10:04:56;8.73;;;2.22;;
53666;SDS011;39568;51.026;5.468;2023-07-20T10:07:28;2.08;;;1.98;;
53666;SDS011;39568;51.026;5.468;2023-07-20T10:09:57;1.88;;;1.77;;
53666;SDS011;39568;51.026;5.468;2023-07-20T10:12:30;2.63;;;2.10;;
53666;SDS011;39568;51.026;5.468;2023-07-20T10:15:02;1.70;;;1.50;;
53666;SDS011;39568;51.026;5.468;2023-07-20T10:17:37;2.35;;;2.25;;
53666;SDS011;39568;51.026;5.468;2023-07-20T10:20:09;3.28;;;1.50;;
53666;SDS011;39568;51.026;5.468;2023-07-20T10:22:38;4.38;;;1.33;;
53666;SDS011;39568;51.026;5.468;2023-07-20T10:25:05;3.05;;;1.67;;
53666;SDS011;39568;51.026;5.468;2023-07-20T10:27:33;1.40;;;1.30;;
53666;SDS011;39568;51.026;5.468;2023-07-20T10:30:02;1.50;;;1.40;;
53666;SDS011;39568;51.026;5.468;2023-07-20T10:32:29;3.00;;;1.88;;
53666;SDS011;39568;51.026;5.468;2023-07-20T10:34:56;2.95;;;2.17;;
53666;SDS011;39568;51.026;5.468;2023-07-20T10:40:31;1.77;;;1.67;;
53666;SDS011;39568;51.026;5.468;2023-07-20T10:42:59;3.53;;;1.58;;
53666;SDS011;39568;51.026;5.468;2023-07-20T10:45:36;2.67;;;1.83;;
53666;SDS011;39568;51.026;5.468;2023-07-20T10:48:05;3.85;;;1.63;;
53666;SDS011;39568;51.026;5.468;2023-07-20T10:50:38;2.90;;;1.65;;
53666;SDS011;39568;51.026;5.468;2023-07-20T10:53:13;1.38;;;1.38;;
53666;SDS011;39568;51.026;5.468;2023-07-20T10:55:42;3.25;;;1.75;;
53666;SDS011;39568;51.026;5.468;2023-07-20T10:58:11;1.23;;;1.23;;
53666;SDS011;39568;51.026;5.468;2023-07-20T11:01:01;1.38;;;1.30;;
53666;SDS011;39568;51.026;5.468;2023-07-20T11:03:29;1.80;;;1.50;;
53666;SDS011;39568;51.026;5.468;2023-07-20T11:05:57;4.97;;;2.25;;
53666;SDS011;39568;51.026;5.468;2023-07-20T11:08:40;1.40;;;1.00;;
53666;SDS011;39568;51.026;5.468;2023-07-20T11:11:23;2.63;;;0.80;;
53666;SDS011;39568;51.026;5.468;2023-07-20T11:13:53;0.97;;;0.97;;
53666;SDS011;39568;51.026;5.468;2023-07-20T11:16:33;1.13;;;1.02;;
53666;SDS011;39568;51.026;5.468;2023-07-20T11:19:02;1.23;;;1.13;;
53666;SDS011;39568;51.026;5.468;2023-07-20T11:21:35;0.80;;;0.80;;
53666;SDS011;39568;51.026;5.468;2023-07-20T11:24:04;6.82;;;0.90;;
53666;SDS011;39568;51.026;5.468;2023-07-20T11:26:39;6.75;;;0.95;;
53666;SDS011;39568;51.026;5.468;2023-07-20T11:29:06;2.05;;;1.25;;
53666;SDS011;39568;51.026;5.468;2023-07-20T11:31:36;2.35;;;1.23;;
53666;SDS011;39568;51.026;5.468;2023-07-20T11:34:07;1.13;;;1.00;;
53666;SDS011;39568;51.026;5.468;2023-07-20T11:36:38;0.75;;;0.63;;
53666;SDS011;39568;51.026;5.468;2023-07-20T11:39:06;0.98;;;0.98;;
53666;SDS011;39568;51.026;5.468;2023-07-20T11:41:34;1.15;;;0.68;;
53666;SDS011;39568;51.026;5.468;2023-07-20T11:44:02;0.52;;;0.52;;
53666;SDS011;39568;51.026;5.468;2023-07-20T11:46:29;0.73;;;0.70;;
53666;SDS011;39568;51.026;5.468;2023-07-20T11:48:58;1.35;;;0.93;;
53666;SDS011;39568;51.026;5.468;2023-07-20T11:51:26;2.78;;;0.80;;
53666;SDS011;39568;51.026;5.468;2023-07-20T11:53:54;2.67;;;0.80;;
53666;SDS011;39568;51.026;5.468;2023-07-20T11:56:23;0.70;;;0.70;;
53666;SDS011;39568;51.026;5.468;2023-07-20T11:58:56;1.08;;;0.98;;
53666;SDS011;39568;51.026;5.468;2023-07-20T12:01:25;7.47;;;0.88;;
53666;SDS011;39568;51.026;5.468;2023-07-20T12:03:58;1.20;;;0.80;;
53666;SDS011;39568;51.026;5.468;2023-07-20T12:06:27;0.60;;;0.60;;
53666;SDS011;39568;51.026;5.468;2023-07-20T12:08:54;0.80;;;0.80;;
53666;SDS011;39568;51.026;5.468;2023-07-20T12:11:33;1.10;;;0.80;;
53666;SDS011;39568;51.026;5.468;2023-07-20T12:14:02;0.70;;;0.57;;
53666;SDS011;39568;51.026;5.468;2023-07-20T12:16:30;3.75;;;0.70;;
53666;SDS011;39568;51.026;5.468;2023-07-20T12:19:04;0.73;;;0.70;;
53666;SDS011;39568;51.026;5.468;2023-07-20T12:21:31;1.00;;;0.90;;
53666;SDS011;39568;51.026;5.468;2023-07-20T12:24:00;0.75;;;0.70;;
53666;SDS011;39568;51.026;5.468;2023-07-20T12:26:28;0.80;;;0.50;;
53666;SDS011;39568;51.026;5.468;2023-07-20T12:28:56;0.70;;;0.70;;
53666;SDS011;39568;51.026;5.468;2023-07-20T12:31:23;1.42;;;1.05;;
53666;SDS011;39568;51.026;5.468;2023-07-20T12:33:50;2.85;;;1.20;;
53666;SDS011;39568;51.026;5.468;2023-07-20T12:36:18;0.73;;;0.73;;
53666;SDS011;39568;51.026;5.468;2023-07-20T12:38:45;0.98;;;0.98;;
53666;SDS011;39568;51.026;5.468;2023-07-20T12:41:13;0.60;;;0.60;;
53666;SDS011;39568;51.026;5.468;2023-07-20T12:43:43;0.80;;;0.70;;
53666;SDS011;39568;51.026;5.468;2023-07-20T12:46:10;0.70;;;0.70;;
53666;SDS011;39568;51.026;5.468;2023-07-20T12:48:38;0.70;;;0.70;;
53666;SDS011;39568;51.026;5.468;2023-07-20T12:51:07;3.70;;;0.80;;
53666;SDS011;39568;51.026;5.468;2023-07-20T12:53:35;2.20;;;0.70;;
53666;SDS011;39568;51.026;5.468;2023-07-20T12:56:05;2.40;;;0.60;;
53666;SDS011;39568;51.026;5.468;2023-07-20T12:58:32;0.63;;;0.63;;
53666;SDS011;39568;51.026;5.468;2023-07-20T13:00:59;4.00;;;1.20;;
53666;SDS011;39568;51.026;5.468;2023-07-20T13:03:26;1.00;;;0.55;;
53666;SDS011;39568;51.026;5.468;2023-07-20T13:05:52;3.03;;;1.05;;
53666;SDS011;39568;51.026;5.468;2023-07-20T13:08:19;0.93;;;0.93;;
53666;SDS011;39568;51.026;5.468;2023-07-20T13:10:47;0.65;;;0.65;;
53666;SDS011;39568;51.026;5.468;2023-07-20T13:13:15;1.20;;;1.10;;
53666;SDS011;39568;51.026;5.468;2023-07-20T13:15:42;0.90;;;0.90;;
53666;SDS011;39568;51.026;5.468;2023-07-20T13:18:13;4.43;;;1.20;;
53666;SDS011;39568;51.026;5.468;2023-07-20T13:20:39;1.08;;;0.98;;
53666;SDS011;39568;51.026;5.468;2023-07-20T13:23:06;2.63;;;0.93;;
53666;SDS011;39568;51.026;5.468;2023-07-20T13:25:33;1.27;;;1.00;;
53666;SDS011;39568;51.026;5.468;2023-07-20T13:28:01;1.25;;;1.02;;
53666;SDS011;39568;51.026;5.468;2023-07-20T13:30:31;9.02;;;0.73;;
53666;SDS011;39568;51.026;5.468;2023-07-20T13:32:58;1.00;;;1.00;;
53666;SDS011;39568;51.026;5.468;2023-07-20T13:35:25;3.80;;;1.45;;
53666;SDS011;39568;51.026;5.468;2023-07-20T13:37:52;5.72;;;1.05;;
53666;SDS011;39568;51.026;5.468;2023-07-20T13:40:18;0.85;;;0.85;;
53666;SDS011;39568;51.026;5.468;2023-07-20T13:42:47;1.60;;;1.10;;
53666;SDS011;39568;51.026;5.468;2023-07-20T13:45:20;1.52;;;1.00;;
53666;SDS011;39568;51.026;5.468;2023-07-20T13:47:47;3.03;;;0.70;;
53666;SDS011;39568;51.026;5.468;2023-07-20T13:50:15;1.00;;;0.57;;
53666;SDS011;39568;51.026;5.468;2023-07-20T13:52:42;1.73;;;0.68;;
53666;SDS011;39568;51.026;5.468;2023-07-20T13:55:09;0.70;;;0.68;;
53666;SDS011;39568;51.026;5.468;2023-07-20T13:57:35;1.42;;;0.60;;
53666;SDS011;39568;51.026;5.468;2023-07-20T14:00:02;1.17;;;0.47;;
53666;SDS011;39568;51.026;5.468;2023-07-20T14:02:31;2.72;;;0.90;;
53666;SDS011;39568;51.026;5.468;2023-07-20T14:04:58;1.67;;;0.80;;
53666;SDS011;39568;51.026;5.468;2023-07-20T14:07:25;2.55;;;1.05;;
53666;SDS011;39568;51.026;5.468;2023-07-20T14:09:53;0.80;;;0.55;;
53666;SDS011;39568;51.026;5.468;2023-07-20T14:12:22;0.80;;;0.80;;
53666;SDS011;39568;51.026;5.468;2023-07-20T14:14:55;2.88;;;1.00;;
53666;SDS011;39568;51.026;5.468;2023-07-20T14:17:21;2.85;;;0.73;;
53666;SDS011;39568;51.026;5.468;2023-07-20T14:19:54;0.82;;;0.82;;
53666;SDS011;39568;51.026;5.468;2023-07-20T14:22:20;1.85;;;0.90;;
53666;SDS011;39568;51.026;5.468;2023-07-20T14:24:48;1.70;;;0.65;;
53666;SDS011;39568;51.026;5.468;2023-07-20T14:27:14;2.45;;;0.70;;
53666;SDS011;39568;51.026;5.468;2023-07-20T14:29:41;0.60;;;0.60;;
53666;SDS011;39568;51.026;5.468;2023-07-20T14:32:08;0.80;;;0.80;;
53666;SDS011;39568;51.026;5.468;2023-07-20T14:34:35;1.95;;;0.98;;
53666;SDS011;39568;51.026;5.468;2023-07-20T14:37:03;1.02;;;1.02;;
53666;SDS011;39568;51.026;5.468;2023-07-20T14:39:30;1.50;;;1.40;;
53666;SDS011;39568;51.026;5.468;2023-07-20T14:41:57;1.08;;;0.98;;
53666;SDS011;39568;51.026;5.468;2023-07-20T14:44:24;4.88;;;0.75;;
53666;SDS011;39568;51.026;5.468;2023-07-20T14:46:53;3.33;;;0.93;;
53666;SDS011;39568;51.026;5.468;2023-07-20T14:49:20;4.85;;;0.70;;
53666;SDS011;39568;51.026;5.468;2023-07-20T14:51:47;0.80;;;0.80;;
53666;SDS011;39568;51.026;5.468;2023-07-20T14:54:16;1.95;;;0.55;;
53666;SDS011;39568;51.026;5.468;2023-07-20T14:56:48;0.57;;;0.57;;